createdAt,value
2022-12-27T00:01:52.944Z,9.40
2022-12-27T00:04:24.616Z,9.29
2022-12-27T00:06:56.626Z,9.26
2022-12-27T00:09:28.370Z,9.31
2022-12-27T00:12:00.308Z,9.41
2022-12-27T00:14:32.929Z,9.46
2022-12-27T00:17:04.696Z,9.50
2022-12-27T00:19:36.326Z,9.48
2022-12-27T00:22:07.933Z,9.42
2022-12-27T00:24:39.666Z,9.43
2022-12-27T00:27:11.700Z,9.39
2022-12-27T00:29:43.234Z,9.49
2022-12-27T00:32:14.954Z,9.41
2022-12-27T00:34:46.713Z,9.29
2022-12-27T00:37:18.630Z,9.32
2022-12-27T00:39:50.456Z,9.39
2022-12-27T00:42:22.194Z,9.46
2022-12-27T00:44:53.915Z,9.53
2022-12-27T00:47:25.420Z,9.44
2022-12-27T00:49:57.006Z,9.36
2022-12-27T00:52:28.548Z,9.31
2022-12-27T00:55:00.189Z,9.34
2022-12-27T00:57:31.777Z,9.46
2022-12-27T01:00:09.603Z,9.44
2022-12-27T01:02:42.059Z,9.40
2022-12-27T01:05:13.654Z,9.46
2022-12-27T01:07:45.272Z,9.50
2022-12-27T01:10:17.258Z,9.52
2022-12-27T01:12:48.740Z,9.55
2022-12-27T01:15:20.234Z,9.64
2022-12-27T01:17:52.126Z,9.55
2022-12-27T01:20:23.646Z,9.35
2022-12-27T01:22:56.727Z,9.19
2022-12-27T01:25:28.204Z,9.22
2022-12-27T01:27:59.808Z,9.23
2022-12-27T01:30:31.359Z,9.17
2022-12-27T01:33:02.824Z,9.15
2022-12-27T01:35:34.517Z,9.32
2022-12-27T01:38:05.862Z,9.30
2022-12-27T01:40:38.850Z,9.23
2022-12-27T01:43:18.457Z,9.36
2022-12-27T01:45:50.482Z,9.45
2022-12-27T01:48:26.068Z,9.34
2022-12-27T01:51:02.209Z,9.16
2022-12-27T01:53:37.473Z,9.13
2022-12-27T01:56:13.192Z,9.27
2022-12-27T01:58:49.719Z,9.10
2022-12-27T02:01:25.044Z,9.02
2022-12-27T02:04:00.623Z,9.05
2022-12-27T02:06:34.361Z,9.00
2022-12-27T02:09:12.153Z,9.05
2022-12-27T02:11:53.678Z,9.03
2022-12-27T02:14:28.291Z,8.92
2022-12-27T02:16:58.749Z,8.84
2022-12-27T02:19:40.648Z,8.84
2022-12-27T02:22:56.622Z,8.77
2022-12-27T02:25:46.684Z,8.73
2022-12-27T02:28:35.187Z,8.53
2022-12-27T02:31:12.278Z,8.51
2022-12-27T02:33:49.074Z,8.41
2022-12-27T02:36:25.857Z,8.45
2022-12-27T02:39:01.149Z,8.42
2022-12-27T02:41:53.125Z,8.36
2022-12-27T02:44:42.215Z,8.48
2022-12-27T02:47:39.175Z,8.50
2022-12-27T02:50:32.791Z,8.39
2022-12-27T02:53:09.568Z,8.40
2022-12-27T02:56:14.163Z,8.45
2022-12-27T02:58:58.711Z,8.42
2022-12-27T03:01:57.791Z,8.34
2022-12-27T03:04:47.016Z,8.31
2022-12-27T03:07:30.162Z,8.27
2022-12-27T03:10:34.654Z,8.05
2022-12-27T03:13:35.375Z,7.90
2022-12-27T03:16:15.979Z,7.75
2022-12-27T03:19:13.011Z,7.56
2022-12-27T03:22:05.105Z,7.33
2022-12-27T03:24:57.463Z,7.09
2022-12-27T03:27:34.390Z,6.84
2022-12-27T03:30:27.326Z,6.68
2022-12-27T03:33:14.744Z,6.50
2022-12-27T03:36:16.981Z,6.35
2022-12-27T03:38:54.639Z,6.26
2022-12-27T03:41:49.209Z,6.33
2022-12-27T03:44:26.705Z,6.18
2022-12-27T03:47:01.902Z,5.98
2022-12-27T03:49:40.582Z,6.02
2022-12-27T03:52:16.650Z,6.18
2022-12-27T03:54:51.799Z,6.13
2022-12-27T03:57:26.219Z,5.99
2022-12-27T03:59:58.300Z,5.89
2022-12-27T04:02:30.366Z,5.79
2022-12-27T04:05:02.210Z,5.84
2022-12-27T04:07:34.087Z,5.86
2022-12-27T04:10:23.279Z,5.83
2022-12-27T04:13:12.036Z,5.73
2022-12-27T04:16:00.603Z,5.80
2022-12-27T04:18:49.623Z,5.93
2022-12-27T04:21:38.514Z,5.91
2022-12-27T04:24:30.331Z,5.79
2022-12-27T04:27:19.299Z,5.68
2022-12-27T04:30:08.424Z,5.50
2022-12-27T04:33:00.252Z,5.40
2022-12-27T04:35:37.514Z,5.46
2022-12-27T04:38:08.998Z,5.65
2022-12-27T04:40:57.864Z,5.62
2022-12-27T04:43:47.040Z,5.55
2022-12-27T04:46:42.350Z,5.34
2022-12-27T04:49:36.827Z,5.29
2022-12-27T04:52:32.355Z,5.37
2022-12-27T04:55:08.054Z,5.31
2022-12-27T04:57:39.678Z,5.37
2022-12-27T05:00:30.880Z,5.39
2022-12-27T05:03:04.118Z,5.33
2022-12-27T05:05:36.597Z,5.36
2022-12-27T05:08:26.903Z,5.35
2022-12-27T05:11:15.865Z,5.27
2022-12-27T05:14:02.267Z,5.19
2022-12-27T05:16:36.827Z,5.11
2022-12-27T05:19:10.036Z,5.25
2022-12-27T05:22:05.286Z,5.24
2022-12-27T05:24:54.628Z,5.26
2022-12-27T05:27:26.156Z,5.20
2022-12-27T05:29:57.727Z,5.11
2022-12-27T05:32:29.324Z,5.06
2022-12-27T05:35:01.080Z,5.14
2022-12-27T05:37:32.650Z,5.16
2022-12-27T05:40:04.263Z,5.26
2022-12-27T05:42:36.332Z,5.28
2022-12-27T05:45:10.080Z,5.24
2022-12-27T05:47:41.794Z,5.20
2022-12-27T05:50:13.671Z,5.15
2022-12-27T05:52:45.119Z,4.96
2022-12-27T05:55:16.561Z,4.90
2022-12-27T05:57:48.171Z,4.85
2022-12-27T06:00:21.273Z,4.71
2022-12-27T06:02:52.969Z,4.63
2022-12-27T06:05:24.891Z,4.71
2022-12-27T06:07:56.558Z,4.71
2022-12-27T06:10:28.163Z,4.70
2022-12-27T06:13:00.990Z,4.71
2022-12-27T06:15:32.683Z,4.79
2022-12-27T06:18:04.450Z,4.79
2022-12-27T06:20:36.205Z,4.92
2022-12-27T06:23:07.754Z,5.04
2022-12-27T06:25:40.668Z,4.92
2022-12-27T06:28:12.445Z,4.89
2022-12-27T06:30:43.933Z,4.80
2022-12-27T06:33:15.287Z,4.66
2022-12-27T06:35:46.849Z,4.65
2022-12-27T06:38:18.407Z,4.62
2022-12-27T06:40:50.068Z,4.77
2022-12-27T06:43:21.535Z,4.78
2022-12-27T06:46:01.507Z,4.67
2022-12-27T06:48:33.534Z,4.70
2022-12-27T06:51:07.237Z,4.88
2022-12-27T06:53:39.225Z,4.90
2022-12-27T06:56:13.020Z,4.86
2022-12-27T06:58:44.644Z,4.79
2022-12-27T07:01:18.589Z,4.71
2022-12-27T07:03:54.247Z,4.63
2022-12-27T07:06:27.135Z,4.68
2022-12-27T07:09:00.234Z,4.75
2022-12-27T07:11:33.675Z,4.89
2022-12-27T07:14:06.445Z,4.90
2022-12-27T07:16:38.041Z,4.96
2022-12-27T07:19:11.711Z,4.97
2022-12-27T07:21:43.333Z,4.87
2022-12-27T07:24:15.040Z,4.84
2022-12-27T07:26:46.622Z,4.86
2022-12-27T07:29:18.389Z,4.85
2022-12-27T07:31:49.974Z,4.93
2022-12-27T07:34:22.327Z,4.98
2022-12-27T07:36:53.801Z,4.96
2022-12-27T07:39:25.276Z,4.98
2022-12-27T07:41:56.682Z,5.05
2022-12-27T07:44:28.297Z,5.06
2022-12-27T07:46:59.821Z,5.15
2022-12-27T07:49:31.458Z,5.19
2022-12-27T07:52:03.105Z,5.12
2022-12-27T07:54:34.685Z,5.14
2022-12-27T07:57:06.318Z,5.21
2022-12-27T07:59:37.845Z,5.29
2022-12-27T08:02:10.666Z,5.35
2022-12-27T08:04:42.456Z,5.44
2022-12-27T08:07:17.973Z,5.41
2022-12-27T08:09:50.855Z,5.48
2022-12-27T08:12:22.370Z,5.50
2022-12-27T08:14:53.897Z,5.42
2022-12-27T08:17:29.136Z,5.48
2022-12-27T08:20:00.522Z,5.65
2022-12-27T08:22:32.001Z,5.65
2022-12-27T08:25:03.739Z,5.67
2022-12-27T08:27:35.393Z,5.68
2022-12-27T08:30:08.535Z,5.67
2022-12-27T08:32:40.076Z,5.60
2022-12-27T08:35:50.146Z,5.55
2022-12-27T08:38:05.507Z,5.44
2022-12-27T08:40:40.864Z,5.56
2022-12-27T08:43:13.103Z,5.65
2022-12-27T08:45:44.961Z,5.73
2022-12-27T08:48:16.734Z,5.84
2022-12-27T08:50:48.165Z,5.77
2022-12-27T08:53:19.799Z,5.73
2022-12-27T08:55:51.268Z,5.65
2022-12-27T08:58:22.874Z,5.63
2022-12-27T09:00:54.427Z,5.65
2022-12-27T09:03:25.963Z,5.68
2022-12-27T09:05:57.563Z,5.79
2022-12-27T09:08:29.258Z,5.76
2022-12-27T09:11:08.009Z,5.77
2022-12-27T09:13:39.516Z,5.72
2022-12-27T09:16:14.431Z,5.81
2022-12-27T09:18:49.126Z,5.89
2022-12-27T09:21:22.177Z,5.95
2022-12-27T09:23:54.203Z,6.15
2022-12-27T09:26:28.044Z,6.22
2022-12-27T09:29:00.726Z,6.21
2022-12-27T09:31:33.164Z,6.27
2022-12-27T09:34:04.862Z,6.33
2022-12-27T09:36:39.342Z,6.25
2022-12-27T09:39:14.023Z,6.40
2022-12-27T09:42:46.601Z,6.58
2022-12-27T09:44:52.444Z,6.60
2022-12-27T09:47:29.637Z,6.63
2022-12-27T09:50:07.993Z,6.47
2022-12-27T09:52:43.380Z,6.47
2022-12-27T09:55:21.142Z,6.71
2022-12-27T09:58:00.497Z,6.75
2022-12-27T10:00:34.408Z,6.70
2022-12-27T10:03:08.977Z,6.77
2022-12-27T10:05:46.058Z,6.66
2022-12-27T10:08:31.053Z,6.49
2022-12-27T10:11:09.800Z,6.41
2022-12-27T10:13:53.125Z,6.37
2022-12-27T10:16:30.853Z,6.42
2022-12-27T10:19:29.369Z,6.48
2022-12-27T10:22:14.541Z,6.56
2022-12-27T10:24:47.974Z,6.57
2022-12-27T10:27:23.680Z,6.49
2022-12-27T10:29:57.517Z,6.34
2022-12-27T10:32:29.543Z,6.24
2022-12-27T10:35:03.261Z,6.16
2022-12-27T10:37:35.041Z,6.15
2022-12-27T10:40:16.333Z,6.16
2022-12-27T10:42:56.327Z,6.18
2022-12-27T10:45:37.307Z,6.29
2022-12-27T10:48:25.117Z,6.24
2022-12-27T10:51:01.523Z,6.23
2022-12-27T10:53:42.017Z,6.24
2022-12-27T10:56:18.077Z,6.22
2022-12-27T10:58:58.184Z,6.23
2022-12-27T11:01:32.860Z,6.15
2022-12-27T11:04:20.182Z,6.30
2022-12-27T11:07:12.764Z,6.42
2022-12-27T11:09:50.611Z,6.43
2022-12-27T11:12:25.205Z,6.45
2022-12-27T11:15:02.505Z,6.43
2022-12-27T11:17:39.988Z,6.37
2022-12-27T11:20:24.419Z,6.45
2022-12-27T11:22:59.874Z,6.31
2022-12-27T11:25:33.016Z,6.22
2022-12-27T11:28:06.947Z,6.17
2022-12-27T11:30:42.033Z,6.33
2022-12-27T11:33:25.543Z,6.53
2022-12-27T11:35:59.927Z,6.67
2022-12-27T11:38:33.991Z,6.76
2022-12-27T11:41:11.053Z,6.73
2022-12-27T11:43:47.104Z,6.75
2022-12-27T11:46:26.532Z,6.80
2022-12-27T11:49:01.511Z,6.69
2022-12-27T11:52:11.999Z,6.61
2022-12-27T11:55:17.740Z,6.77
2022-12-27T11:58:13.003Z,6.85
2022-12-27T12:00:59.173Z,6.69
2022-12-27T12:04:08.659Z,6.56
2022-12-27T12:06:56.671Z,6.56
2022-12-27T12:10:03.442Z,6.51
2022-12-27T12:13:16.744Z,6.45
2022-12-27T12:16:18.747Z,6.42
2022-12-27T12:19:06.312Z,6.49
2022-12-27T12:21:47.871Z,6.37
2022-12-27T12:24:41.534Z,6.38
2022-12-27T12:27:49.048Z,6.37
2022-12-27T12:30:42.860Z,6.41
2022-12-27T12:33:34.786Z,6.49
2022-12-27T12:36:28.264Z,6.45
2022-12-27T12:39:11.391Z,6.45
2022-12-27T12:41:58.129Z,6.35
2022-12-27T12:44:54.489Z,6.38
2022-12-27T12:47:46.472Z,6.39
2022-12-27T12:50:46.878Z,6.39
2022-12-27T12:53:36.233Z,6.31
2022-12-27T12:56:28.193Z,6.32
2022-12-27T12:59:13.878Z,6.39
2022-12-27T13:02:02.191Z,6.34
2022-12-27T13:04:46.527Z,6.42
2022-12-27T13:07:41.201Z,6.45
2022-12-27T13:10:43.818Z,6.44
2022-12-27T13:13:20.714Z,6.40
2022-12-27T13:16:08.479Z,6.35
2022-12-27T13:18:50.626Z,6.34
2022-12-27T13:21:38.768Z,6.23
2022-12-27T13:24:29.370Z,6.19
2022-12-27T13:27:12.461Z,6.28
2022-12-27T13:30:06.842Z,6.30
2022-12-27T13:32:59.753Z,6.27
2022-12-27T13:35:45.294Z,6.28
2022-12-27T13:38:33.790Z,6.33
2022-12-27T13:41:34.641Z,6.30
2022-12-27T13:44:40.046Z,6.30
2022-12-27T13:47:35.795Z,6.29
2022-12-27T13:50:36.022Z,6.43
2022-12-27T13:53:23.422Z,6.49
2022-12-27T13:56:20.325Z,6.37
2022-12-27T13:59:07.818Z,6.43
2022-12-27T14:02:02.653Z,6.43
2022-12-27T14:04:59.060Z,6.28
2022-12-27T14:07:53.119Z,6.20
2022-12-27T14:10:37.788Z,6.24
2022-12-27T14:13:13.624Z,6.26
2022-12-27T14:16:17.887Z,6.33
2022-12-27T14:19:09.290Z,6.32
2022-12-27T14:22:10.309Z,6.25
2022-12-27T14:25:15.615Z,6.20
2022-12-27T14:28:18.737Z,6.25
2022-12-27T14:31:11.154Z,6.13
2022-12-27T14:34:19.954Z,6.14
2022-12-27T14:37:35.921Z,6.13
2022-12-27T14:40:53.457Z,6.13
2022-12-27T14:44:00.074Z,6.09
2022-12-27T14:47:13.789Z,6.05
2022-12-27T14:50:15.397Z,6.00
2022-12-27T14:53:19.893Z,5.86
2022-12-27T14:56:04.261Z,5.88
2022-12-27T14:59:05.084Z,5.87
2022-12-27T15:01:51.422Z,5.81
2022-12-27T15:04:47.958Z,5.73
2022-12-27T15:07:39.047Z,5.80
2022-12-27T15:10:20.105Z,5.78
2022-12-27T15:12:59.922Z,5.64
2022-12-27T15:15:49.743Z,5.72
2022-12-27T15:18:35.556Z,5.76
2022-12-27T15:21:22.219Z,5.77
2022-12-27T15:24:00.344Z,5.74
2022-12-27T15:26:40.968Z,5.77
2022-12-27T15:29:38.468Z,5.81
2022-12-27T15:32:23.354Z,5.78
2022-12-27T15:35:11.902Z,5.86
2022-12-27T15:38:02.242Z,5.86
2022-12-27T15:40:55.433Z,5.85
2022-12-27T15:43:41.972Z,5.92
2022-12-27T15:46:35.920Z,5.87
2022-12-27T15:49:34.597Z,5.81
2022-12-27T15:52:15.098Z,5.92
2022-12-27T15:55:02.131Z,5.93
2022-12-27T15:58:06.264Z,5.92
2022-12-27T16:00:39.201Z,5.95
2022-12-27T16:03:36.043Z,6.03
2022-12-27T16:06:11.040Z,5.89
2022-12-27T16:08:44.601Z,5.81
2022-12-27T16:11:17.403Z,5.71
2022-12-27T16:13:51.805Z,5.69
2022-12-27T16:16:53.833Z,5.66
2022-12-27T16:19:54.811Z,5.72
2022-12-27T16:22:38.603Z,5.63
2022-12-27T16:25:35.468Z,5.73
2022-12-27T16:28:10.749Z,5.71
2022-12-27T16:30:49.324Z,5.72
2022-12-27T16:33:37.937Z,5.71
2022-12-27T16:36:26.730Z,5.76
2022-12-27T16:39:15.152Z,5.83
2022-12-27T16:42:04.216Z,5.84
2022-12-27T16:44:56.713Z,5.93
2022-12-27T16:47:42.757Z,5.90
2022-12-27T16:50:41.140Z,5.81
2022-12-27T16:53:25.014Z,5.78
2022-12-27T16:56:20.108Z,5.83
2022-12-27T16:58:52.067Z,5.84
2022-12-27T17:01:59.285Z,5.81
2022-12-27T17:04:58.677Z,5.74
2022-12-27T17:08:11.293Z,5.91
2022-12-27T17:11:04.127Z,5.95
2022-12-27T17:13:43.702Z,6.02
2022-12-27T17:16:22.186Z,5.92
2022-12-27T17:18:58.315Z,5.82
2022-12-27T17:21:33.061Z,5.80
2022-12-27T17:24:07.125Z,5.74
2022-12-27T17:27:09.903Z,5.87
2022-12-27T17:30:14.634Z,5.95
2022-12-27T17:33:08.112Z,5.88
2022-12-27T17:35:54.860Z,5.85
2022-12-27T17:38:35.510Z,6.04
2022-12-27T17:41:16.277Z,6.13
2022-12-27T17:44:22.794Z,5.98
2022-12-27T17:47:04.198Z,5.82
2022-12-27T17:49:36.624Z,5.89
2022-12-27T17:52:25.352Z,5.86
2022-12-27T17:55:26.236Z,5.92
2022-12-27T17:57:58.946Z,6.00
2022-12-27T18:00:34.190Z,6.07
2022-12-27T18:03:12.642Z,5.87
2022-12-27T18:05:49.971Z,5.80
2022-12-27T18:08:30.973Z,5.91
2022-12-27T18:11:05.408Z,5.90
2022-12-27T18:13:40.403Z,5.89
2022-12-27T18:16:20.290Z,5.86
2022-12-27T18:19:00.235Z,5.83
2022-12-27T18:21:34.581Z,5.92
2022-12-27T18:24:20.710Z,5.94
2022-12-27T18:27:04.324Z,5.87
2022-12-27T18:29:37.104Z,5.94
2022-12-27T18:32:11.648Z,6.07
2022-12-27T18:34:47.907Z,6.12
2022-12-27T18:37:24.265Z,6.22
2022-12-27T18:40:00.598Z,6.18
2022-12-27T18:42:36.325Z,6.11
2022-12-27T18:45:17.906Z,5.99
2022-12-27T18:47:53.784Z,5.90
2022-12-27T18:50:29.568Z,5.92
2022-12-27T18:53:07.273Z,5.90
2022-12-27T18:55:57.382Z,5.96
2022-12-27T18:58:30.310Z,6.07
2022-12-27T19:01:06.326Z,5.99
2022-12-27T19:03:40.977Z,5.99
2022-12-27T19:06:13.261Z,6.05
2022-12-27T19:08:52.392Z,6.18
2022-12-27T19:11:31.651Z,6.16
2022-12-27T19:14:06.889Z,6.10
2022-12-27T19:16:40.544Z,6.10
2022-12-27T19:19:20.061Z,6.03
2022-12-27T19:21:51.679Z,5.93
2022-12-27T19:24:43.494Z,6.07
2022-12-27T19:27:26.173Z,6.03
2022-12-27T19:29:59.125Z,5.95
2022-12-27T19:32:36.081Z,5.99
2022-12-27T19:35:08.921Z,6.07
2022-12-27T19:37:40.971Z,6.14
2022-12-27T19:40:18.751Z,6.22
2022-12-27T19:42:50.974Z,6.23
2022-12-27T19:45:23.313Z,6.28
2022-12-27T19:47:56.131Z,6.17
2022-12-27T19:50:28.488Z,6.11
2022-12-27T19:53:01.799Z,6.21
2022-12-27T19:55:36.623Z,6.27
2022-12-27T19:58:06.890Z,6.14
2022-12-27T20:00:40.700Z,6.06
2022-12-27T20:03:12.427Z,6.08
2022-12-27T20:06:14.775Z,5.94
2022-12-27T20:08:44.462Z,5.86
2022-12-27T20:11:18.964Z,5.87
2022-12-27T20:13:52.440Z,5.87
2022-12-27T20:16:24.891Z,5.82
2022-12-27T20:18:56.933Z,5.78
2022-12-27T20:21:28.932Z,5.70
2022-12-27T20:24:01.475Z,5.77
2022-12-27T20:26:34.528Z,5.85
2022-12-27T20:29:06.726Z,5.95
2022-12-27T20:31:44.601Z,5.90
2022-12-27T20:34:17.184Z,5.87
2022-12-27T20:36:49.722Z,5.88
2022-12-27T20:39:21.966Z,5.90
2022-12-27T20:41:56.637Z,5.84
2022-12-27T20:44:29.770Z,5.79
2022-12-27T20:47:02.155Z,5.89
2022-12-27T20:49:34.167Z,5.93
2022-12-27T20:52:06.050Z,5.96
2022-12-27T20:54:38.101Z,6.05
2022-12-27T20:57:10.052Z,6.05
2022-12-27T20:59:42.577Z,5.97
2022-12-27T21:02:15.454Z,6.05
2022-12-27T21:04:47.843Z,6.04
2022-12-27T21:07:19.536Z,5.92
2022-12-27T21:09:51.602Z,5.75
2022-12-27T21:12:23.349Z,5.63
2022-12-27T21:14:55.908Z,5.55
2022-12-27T21:17:27.969Z,5.51
2022-12-27T21:20:00.389Z,5.53
2022-12-27T21:22:32.171Z,5.53
2022-12-27T21:25:04.132Z,5.51
2022-12-27T21:27:35.692Z,5.44
2022-12-27T21:30:09.160Z,5.45
2022-12-27T21:32:40.749Z,5.40
2022-12-27T21:35:14.348Z,5.43
2022-12-27T21:37:46.125Z,5.57
2022-12-27T21:40:18.208Z,5.67
2022-12-27T21:42:50.687Z,5.75
2022-12-27T21:45:22.229Z,5.67
2022-12-27T21:47:54.547Z,5.59
2022-12-27T21:50:26.209Z,5.61
2022-12-27T21:52:57.768Z,5.62
2022-12-27T21:55:29.262Z,5.65
2022-12-27T21:58:00.977Z,5.62
2022-12-27T22:00:32.759Z,5.61
2022-12-27T22:03:04.386Z,5.62
2022-12-27T22:05:36.047Z,5.56
2022-12-27T22:08:07.689Z,5.56
2022-12-27T22:10:39.217Z,5.49
2022-12-27T22:13:11.280Z,5.43
2022-12-27T22:15:42.824Z,5.38
2022-12-27T22:18:14.508Z,5.29
2022-12-27T22:20:47.168Z,5.21
2022-12-27T22:23:18.796Z,5.21
2022-12-27T22:25:50.477Z,5.24
2022-12-27T22:28:22.603Z,5.20
2022-12-27T22:30:54.766Z,5.27
2022-12-27T22:33:26.492Z,5.30
2022-12-27T22:36:05.793Z,5.32
2022-12-27T22:38:37.579Z,5.38
2022-12-27T22:41:12.211Z,5.48
2022-12-27T22:43:45.139Z,5.51
2022-12-27T22:46:16.808Z,5.49
2022-12-27T22:48:53.154Z,5.43
2022-12-27T22:51:26.942Z,5.54
2022-12-27T22:54:00.207Z,5.54
2022-12-27T22:56:33.539Z,5.37
2022-12-27T22:59:07.780Z,5.24
2022-12-27T23:01:40.180Z,5.20
2022-12-27T23:04:14.771Z,5.29
2022-12-27T23:06:46.541Z,5.34
2022-12-27T23:09:18.124Z,5.26
2022-12-27T23:11:49.682Z,5.16
2022-12-27T23:14:21.206Z,5.10
2022-12-27T23:16:53.181Z,5.06
2022-12-27T23:19:26.111Z,5.11
2022-12-27T23:21:57.783Z,5.05
2022-12-27T23:24:29.475Z,5.04
2022-12-27T23:27:01.159Z,5.02
2022-12-27T23:29:33.128Z,4.99
2022-12-27T23:32:04.985Z,5.02
2022-12-27T23:34:36.590Z,5.02
2022-12-27T23:37:08.777Z,5.00
2022-12-27T23:39:40.701Z,5.03
2022-12-27T23:42:12.427Z,4.92
2022-12-27T23:44:44.070Z,4.99
2022-12-27T23:47:15.501Z,5.17
2022-12-27T23:49:47.142Z,5.28
2022-12-27T23:52:18.781Z,5.30
2022-12-27T23:54:50.253Z,5.16
2022-12-27T23:57:22.800Z,4.98
2022-12-27T23:59:55.816Z,5.08
